Time;durP1;ratioP1;P1;durP2;ratioP2;P2;SDS_P1;SDS_P2;PMS_P1;PMS_P2;Temp;Humidity;BMP_temperature;BMP_pressure;BME280_temperature;BME280_humidity;BME280_pressure;Samples;Min_cycle;Max_cycle;Signal;HPM_P1;HPM_P2
2023/06/06 00:01:49;;;;;;;4.07;3.78;;;22.60;97.20;;;;;;6359114;27;87992;-70
2023/06/06 00:04:52;;;;;;;3.80;3.50;;;22.60;96.90;;;;;;6345151;27;88330;-71
2023/06/06 00:07:54;;;;;;;4.70;4.22;;;22.60;97.20;;;;;;6357205;27;89139;-71
2023/06/06 00:10:57;;;;;;;4.25;3.95;;;22.60;97.20;;;;;;6346420;27;89168;-71
2023/06/06 00:13:58;;;;;;;4.68;4.10;;;22.60;97.60;;;;;;6358039;27;90013;-71
2023/06/06 00:17:01;;;;;;;4.13;3.83;;;22.60;97.60;;;;;;6348506;27;89116;-71
2023/06/06 00:20:09;;;;;;;4.70;4.30;;;22.60;97.60;;;;;;6346804;27;89122;-72
2023/06/06 00:23:12;;;;;;;4.20;3.90;;;22.70;97.60;;;;;;6352810;27;88987;-71
2023/06/06 00:26:14;;;;;;;4.50;4.10;;;22.60;97.40;;;;;;6354457;27;89252;-72
2023/06/06 00:29:16;;;;;;;4.50;4.10;;;22.60;97.20;;;;;;6353543;27;89379;-71
2023/06/06 00:32:18;;;;;;;4.80;4.40;;;22.60;97.30;;;;;;6357446;27;89105;-71
2023/06/06 00:35:21;;;;;;;4.90;4.43;;;22.60;97.30;;;;;;6349500;27;88350;-71
2023/06/06 00:38:23;;;;;;;4.30;4.00;;;22.60;97.40;;;;;;6357769;27;89343;-70
2023/06/06 00:41:25;;;;;;;5.47;4.47;;;22.60;97.30;;;;;;6334159;27;89328;-71
2023/06/06 00:44:27;;;;;;;4.55;4.15;;;22.60;97.30;;;;;;6332165;27;88903;-72
2023/06/06 00:47:30;;;;;;;4.38;3.97;;;22.60;97.50;;;;;;6331295;27;88295;-71
2023/06/06 00:50:34;;;;;;;6.18;4.53;;;22.60;97.40;;;;;;6333001;27;89263;-71
2023/06/06 00:53:37;;;;;;;4.53;4.13;;;22.60;97.30;;;;;;6327276;27;89098;-71
2023/06/06 00:56:39;;;;;;;5.25;4.63;;;22.60;97.40;;;;;;6320042;27;90292;-71
2023/06/06 00:59:42;;;;;;;4.63;3.90;;;22.60;97.20;;;;;;6325022;27;89404;-71
2023/06/06 01:02:48;;;;;;;4.70;4.13;;;22.60;97.20;;;;;;6318445;27;89442;-71
2023/06/06 01:05:53;;;;;;;4.82;4.32;;;22.60;97.20;;;;;;6336401;27;88674;-71
2023/06/06 01:08:56;;;;;;;4.82;4.43;;;22.60;97.20;;;;;;6307484;27;89697;-71
2023/06/06 01:12:09;;;;;;;4.60;4.20;;;22.60;97.10;;;;;;6328167;27;89213;-71
2023/06/06 01:15:17;;;;;;;4.75;4.35;;;22.60;97.00;;;;;;6328556;27;90057;-71
2023/06/06 01:18:21;;;;;;;4.40;4.00;;;22.60;97.10;;;;;;6331425;27;89123;-71
2023/06/06 01:21:35;;;;;;;5.72;4.40;;;22.60;96.90;;;;;;6331004;27;89075;-71
2023/06/06 01:24:37;;;;;;;4.80;4.40;;;22.50;97.10;;;;;;6332034;27;88100;-71
2023/06/06 01:27:39;;;;;;;4.88;4.47;;;22.60;96.80;;;;;;6328101;27;89180;-72
2023/06/06 01:30:43;;;;;;;5.30;4.20;;;22.50;97.00;;;;;;6335600;27;88992;-71
2023/06/06 01:33:50;;;;;;;4.82;4.43;;;22.50;96.80;;;;;;6339448;27;87976;-71
2023/06/06 01:36:59;;;;;;;4.65;4.25;;;22.60;96.80;;;;;;6327584;27;88339;-71
2023/06/06 01:40:05;;;;;;;4.40;4.00;;;22.60;96.80;;;;;;6343783;27;89091;-71
2023/06/06 01:43:10;;;;;;;5.78;5.07;;;22.60;96.90;;;;;;6332646;27;89107;-72
2023/06/06 01:46:13;;;;;;;5.25;4.75;;;22.60;96.90;;;;;;6359668;27;90565;-72
2023/06/06 01:49:16;;;;;;;5.15;4.65;;;22.50;96.70;;;;;;6350502;27;89081;-72
2023/06/06 01:52:21;;;;;;;5.05;4.65;;;22.50;96.80;;;;;;6347423;27;88371;-71
2023/06/06 01:55:23;;;;;;;5.20;4.72;;;22.50;96.70;;;;;;6342803;27;89062;-71
2023/06/06 01:58:25;;;;;;;5.97;4.90;;;22.50;96.70;;;;;;6354281;27;87933;-72
2023/06/06 02:01:28;;;;;;;5.43;4.90;;;22.50;96.80;;;;;;6359603;27;89125;-71
2023/06/06 02:04:30;;;;;;;4.90;4.40;;;22.50;96.90;;;;;;6357153;27;87979;-72
2023/06/06 02:07:34;;;;;;;4.93;4.45;;;22.50;96.80;;;;;;6361375;27;88346;-71
2023/06/06 02:10:37;;;;;;;5.05;4.55;;;22.60;96.70;;;;;;6361110;27;89106;-72
2023/06/06 02:13:40;;;;;;;6.45;4.60;;;22.50;96.70;;;;;;6361169;27;89181;-71
2023/06/06 02:16:45;;;;;;;8.18;5.07;;;22.50;96.60;;;;;;6360233;27;90106;-70
2023/06/06 02:19:47;;;;;;;5.40;4.88;;;22.50;96.40;;;;;;6363958;27;89655;-71
2023/06/06 02:22:50;;;;;;;5.47;4.72;;;22.50;96.50;;;;;;6360413;27;89099;-71
2023/06/06 02:25:53;;;;;;;5.00;4.60;;;22.60;96.70;;;;;;6350307;27;89157;-72
2023/06/06 02:28:55;;;;;;;5.68;4.82;;;22.50;96.40;;;;;;6348037;27;89546;-72
2023/06/06 02:31:57;;;;;;;5.22;4.72;;;22.50;96.50;;;;;;6356442;27;89018;-71
2023/06/06 02:35:01;;;;;;;6.10;5.53;;;22.50;96.40;;;;;;6353442;27;89085;-71
2023/06/06 02:38:04;;;;;;;5.78;5.25;;;22.50;96.50;;;;;;6351046;27;88482;-71
2023/06/06 02:41:06;;;;;;;5.38;4.95;;;22.50;96.40;;;;;;6331830;27;89084;-71
2023/06/06 02:44:08;;;;;;;5.45;4.90;;;22.50;96.30;;;;;;6323355;27;91411;-72
2023/06/06 02:47:10;;;;;;;6.10;5.50;;;22.50;96.30;;;;;;6322293;27;90035;-71
2023/06/06 02:50:12;;;;;;;5.85;5.30;;;22.50;96.30;;;;;;6331771;27;89590;-71
2023/06/06 02:53:16;;;;;;;5.75;5.18;;;22.50;96.20;;;;;;6332551;27;89353;-72
2023/06/06 02:56:18;;;;;;;5.72;5.22;;;22.50;96.20;;;;;;6332499;27;89249;-72
2023/06/06 02:59:20;;;;;;;6.35;5.70;;;22.50;96.20;;;;;;6323065;27;89206;-72
2023/06/06 03:02:22;;;;;;;6.82;5.80;;;22.50;96.20;;;;;;6332075;27;88997;-72
2023/06/06 03:05:28;;;;;;;5.65;5.15;;;22.50;96.20;;;;;;6334371;27;88271;-71
2023/06/06 03:08:32;;;;;;;5.82;5.32;;;22.50;96.10;;;;;;6324627;27;88515;-72
2023/06/06 03:11:34;;;;;;;6.10;5.60;;;22.50;96.10;;;;;;6324302;27;89169;-72
2023/06/06 03:14:36;;;;;;;5.53;5.03;;;22.50;96.10;;;;;;6322070;27;87788;-71
2023/06/06 03:17:40;;;;;;;5.05;4.65;;;22.50;96.00;;;;;;6310578;27;90251;-72
2023/06/06 03:20:44;;;;;;;6.03;5.53;;;22.50;95.80;;;;;;6317650;27;89294;-72
2023/06/06 03:23:48;;;;;;;5.93;5.32;;;22.50;95.80;;;;;;6320583;27;89048;-71
2023/06/06 03:26:50;;;;;;;6.25;5.65;;;22.50;95.70;;;;;;6315117;27;87928;-71
2023/06/06 03:29:53;;;;;;;6.38;5.70;;;22.50;95.80;;;;;;6320705;27;89096;-71
2023/06/06 03:32:57;;;;;;;5.82;5.22;;;22.50;95.80;;;;;;6333740;27;89395;-71
2023/06/06 03:35:59;;;;;;;6.10;5.50;;;22.50;95.90;;;;;;6332890;27;89168;-72
2023/06/06 03:39:03;;;;;;;5.72;5.18;;;22.50;95.90;;;;;;6314676;27;88672;-71
2023/06/06 03:42:06;;;;;;;6.25;5.65;;;22.50;95.80;;;;;;6351304;27;88935;-71
2023/06/06 03:45:08;;;;;;;5.90;5.40;;;22.50;95.70;;;;;;6355094;27;87910;-71
2023/06/06 03:48:12;;;;;;;5.80;5.30;;;22.50;95.70;;;;;;6344050;27;89951;-71
2023/06/06 03:51:15;;;;;;;6.13;5.53;;;22.50;95.60;;;;;;6352891;27;89077;-71
2023/06/06 03:54:18;;;;;;;8.18;5.72;;;22.50;95.50;;;;;;6354603;27;89084;-71
2023/06/06 03:57:20;;;;;;;6.07;5.47;;;22.50;95.60;;;;;;6347537;27;89057;-71
2023/06/06 04:00:22;;;;;;;5.85;5.35;;;22.50;95.60;;;;;;6348205;27;89375;-70
2023/06/06 04:03:24;;;;;;;6.05;5.55;;;22.50;95.60;;;;;;6358818;27;89113;-71
2023/06/06 04:06:26;;;;;;;5.90;5.32;;;22.40;95.40;;;;;;6357509;27;89090;-71
2023/06/06 04:09:30;;;;;;;5.85;5.25;;;22.50;95.40;;;;;;6358254;27;88312;-71
2023/06/06 04:12:32;;;;;;;5.72;5.22;;;22.50;95.40;;;;;;6348093;27;89287;-71
2023/06/06 04:15:34;;;;;;;5.88;5.28;;;22.50;95.30;;;;;;6343581;27;88966;-71
2023/06/06 04:18:36;;;;;;;6.00;5.50;;;22.50;95.20;;;;;;6342646;27;90062;-71
2023/06/06 04:21:38;;;;;;;5.72;5.22;;;22.50;95.20;;;;;;6347339;27;89048;-71
2023/06/06 04:24:41;;;;;;;5.40;4.90;;;22.50;95.30;;;;;;6349336;27;87969;-71
2023/06/06 04:27:44;;;;;;;5.72;5.20;;;22.50;95.40;;;;;;6362438;27;89131;-71
2023/06/06 04:30:51;;;;;;;5.88;5.30;;;22.50;95.70;;;;;;6353509;27;88976;-71
2023/06/06 04:33:54;;;;;;;5.50;4.95;;;22.40;95.30;;;;;;6357863;27;90399;-71
2023/06/06 04:37:03;;;;;;;5.63;5.13;;;22.40;95.30;;;;;;6355927;27;88787;-71
2023/06/06 04:40:10;;;;;;;5.45;4.95;;;22.40;95.30;;;;;;6357592;27;88595;-71
2023/06/06 04:43:12;;;;;;;5.57;5.00;;;22.40;95.00;;;;;;6322413;27;89102;-70
2023/06/06 04:46:21;;;;;;;7.03;5.57;;;22.50;95.20;;;;;;6356542;27;88018;-70
2023/06/06 04:49:23;;;;;;;5.68;5.18;;;22.40;95.20;;;;;;6356309;27;89986;-71
2023/06/06 04:52:25;;;;;;;5.72;5.05;;;22.50;95.30;;;;;;6351908;27;88875;-70
2023/06/06 04:55:28;;;;;;;5.65;4.82;;;22.40;95.20;;;;;;6344663;27;87941;-70
2023/06/06 04:58:31;;;;;;;5.60;5.07;;;22.40;95.30;;;;;;6355653;27;87927;-70
2023/06/06 05:01:34;;;;;;;5.03;4.63;;;22.40;95.20;;;;;;6340092;27;89146;-70
2023/06/06 05:04:37;;;;;;;5.80;5.10;;;22.40;95.10;;;;;;6333676;27;89874;-71
2023/06/06 05:07:39;;;;;;;6.35;5.30;;;22.50;95.10;;;;;;6349981;27;89107;-70
2023/06/06 05:10:42;;;;;;;5.63;4.93;;;22.40;95.10;;;;;;6348839;27;88309;-70
2023/06/06 05:13:44;;;;;;;7.35;5.20;;;22.50;95.00;;;;;;6357277;27;89226;-69
2023/06/06 05:16:46;;;;;;;5.60;5.10;;;22.40;95.00;;;;;;6356714;27;89102;-70
2023/06/06 05:19:48;;;;;;;5.88;5.38;;;22.40;95.00;;;;;;6357494;27;90034;-70
2023/06/06 05:22:50;;;;;;;5.90;5.40;;;22.40;95.00;;;;;;6364797;27;89149;-69
2023/06/06 05:25:56;;;;;;;5.63;5.03;;;22.50;95.00;;;;;;6358418;27;89022;-70
2023/06/06 05:28:58;;;;;;;5.18;4.68;;;22.40;95.00;;;;;;6356811;27;88966;-70
2023/06/06 05:32:00;;;;;;;5.75;5.15;;;22.50;94.90;;;;;;6360342;27;89096;-70
2023/06/06 05:35:03;;;;;;;6.38;5.28;;;22.50;94.90;;;;;;6353947;27;89102;-70
2023/06/06 05:38:05;;;;;;;6.85;5.75;;;22.50;94.80;;;;;;6355933;27;89191;-70
2023/06/06 05:41:08;;;;;;;6.22;4.85;;;22.50;94.80;;;;;;6345429;27;88757;-69
2023/06/06 05:44:11;;;;;;;5.55;5.03;;;22.50;94.80;;;;;;6344972;27;89040;-70
2023/06/06 05:47:15;;;;;;;5.80;5.20;;;22.40;94.80;;;;;;6356583;27;89092;-70
2023/06/06 05:50:17;;;;;;;6.18;5.57;;;22.50;94.80;;;;;;6353026;27;90027;-69
2023/06/06 05:53:18;;;;;;;6.10;5.45;;;22.50;94.80;;;;;;6350448;27;88928;-69
2023/06/06 05:56:22;;;;;;;6.40;5.28;;;22.50;94.90;;;;;;6345361;27;89009;-70
2023/06/06 05:59:25;;;;;;;6.38;5.53;;;22.50;94.80;;;;;;6332334;27;90054;-69
2023/06/06 06:02:28;;;;;;;6.70;5.30;;;22.50;94.80;;;;;;6345638;27;89166;-69
2023/06/06 06:05:31;;;;;;;6.10;5.60;;;22.50;94.80;;;;;;6345093;27;89042;-70
2023/06/06 06:08:34;;;;;;;7.97;5.40;;;22.40;94.80;;;;;;6355902;27;88740;-69
2023/06/06 06:11:37;;;;;;;6.22;5.63;;;22.50;94.80;;;;;;6355087;27;88384;-70
2023/06/06 06:14:39;;;;;;;5.93;5.43;;;22.50;94.70;;;;;;6341224;27;89105;-69
2023/06/06 06:17:41;;;;;;;6.50;5.47;;;22.50;94.70;;;;;;6356086;27;89034;-70
2023/06/06 06:20:43;;;;;;;5.75;5.25;;;22.50;94.70;;;;;;6350937;27;90410;-70
2023/06/06 06:23:45;;;;;;;5.70;5.20;;;22.50;94.70;;;;;;6354093;27;91278;-69
2023/06/06 06:26:51;;;;;;;6.00;5.40;;;22.50;94.60;;;;;;6351552;27;88228;-70
2023/06/06 06:29:53;;;;;;;5.55;5.05;;;22.50;94.60;;;;;;6335520;27;89129;-69
2023/06/06 06:32:55;;;;;;;5.50;5.00;;;22.50;94.70;;;;;;6351940;27;89087;-69
2023/06/06 06:35:57;;;;;;;6.05;5.45;;;22.50;94.70;;;;;;6338760;27;89091;-70
2023/06/06 06:38:59;;;;;;;5.93;5.30;;;22.50;95.20;;;;;;6353724;27;89445;-69
2023/06/06 06:42:02;;;;;;;5.70;5.20;;;22.50;94.80;;;;;;6364140;27;88530;-70
2023/06/06 06:45:05;;;;;;;6.65;5.68;;;22.50;94.70;;;;;;6352302;27;89066;-70
2023/06/06 06:48:06;;;;;;;5.63;5.13;;;22.50;94.60;;;;;;6360633;27;89017;-70
2023/06/06 06:51:09;;;;;;;6.47;5.88;;;22.50;94.60;;;;;;6358697;27;89989;-70
2023/06/06 06:54:12;;;;;;;7.38;6.03;;;22.50;94.50;;;;;;6355872;27;89316;-69
2023/06/06 06:57:16;;;;;;;6.18;5.68;;;22.50;94.50;;;;;;6361230;27;89393;-70
2023/06/06 07:00:22;;;;;;;6.13;5.53;;;22.50;94.70;;;;;;6359223;27;90012;-69
2023/06/06 07:03:24;;;;;;;5.95;5.38;;;22.50;94.80;;;;;;6345717;27;89118;-70
2023/06/06 07:06:27;;;;;;;6.40;5.80;;;22.50;94.90;;;;;;6349151;27;89089;-70
2023/06/06 07:09:29;;;;;;;6.93;5.57;;;22.50;94.80;;;;;;6359272;27;89168;-70
2023/06/06 07:12:32;;;;;;;5.68;5.18;;;22.50;94.60;;;;;;6325651;27;88352;-70
2023/06/06 07:15:37;;;;;;;6.15;5.55;;;22.50;94.60;;;;;;6357431;27;89140;-70
2023/06/06 07:18:39;;;;;;;5.75;5.25;;;22.50;94.50;;;;;;6355388;27;89029;-70
2023/06/06 07:21:41;;;;;;;5.50;5.00;;;22.50;94.50;;;;;;6330122;27;90017;-70
2023/06/06 07:24:45;;;;;;;6.20;5.70;;;22.50;94.50;;;;;;6360069;27;89086;-70
2023/06/06 07:27:48;;;;;;;6.07;5.47;;;22.50;94.50;;;;;;6360175;27;89334;-70
2023/06/06 07:30:50;;;;;;;6.32;5.72;;;22.50;94.50;;;;;;6348268;27;87909;-70
2023/06/06 07:33:52;;;;;;;5.93;5.32;;;22.50;94.50;;;;;;6359467;27;89192;-70
2023/06/06 07:36:55;;;;;;;6.30;5.70;;;22.50;94.40;;;;;;6358923;27;89139;-70
2023/06/06 07:39:57;;;;;;;6.65;6.05;;;22.50;94.40;;;;;;6356966;27;89160;-69
2023/06/06 07:43:00;;;;;;;6.85;6.13;;;22.50;94.20;;;;;;6336848;27;88248;-70
2023/06/06 07:46:02;;;;;;;6.65;6.05;;;22.50;94.00;;;;;;6347489;27;89097;-70
2023/06/06 07:49:04;;;;;;;6.40;5.80;;;22.60;93.90;;;;;;6349165;27;89347;-70
2023/06/06 07:52:06;;;;;;;6.43;5.93;;;22.60;93.80;;;;;;6340775;27;90197;-70
2023/06/06 07:55:09;;;;;;;6.25;5.70;;;22.50;93.80;;;;;;6358111;27;88844;-70
2023/06/06 07:58:12;;;;;;;6.18;5.57;;;22.50;94.00;;;;;;6348806;27;89307;-70
2023/06/06 08:01:14;;;;;;;6.40;5.80;;;22.50;94.30;;;;;;6337109;27;89051;-69
2023/06/06 08:04:16;;;;;;;6.60;6.00;;;22.50;94.20;;;;;;6348833;27;89522;-71
2023/06/06 08:07:18;;;;;;;6.30;5.68;;;22.50;94.10;;;;;;6349116;27;88835;-70
2023/06/06 08:10:20;;;;;;;6.40;5.80;;;22.50;94.20;;;;;;6356534;27;89009;-71
2023/06/06 08:13:24;;;;;;;6.25;5.65;;;22.50;94.20;;;;;;6343570;27;89376;-70
2023/06/06 08:16:26;;;;;;;6.10;5.50;;;22.50;93.90;;;;;;6339370;27;89063;-69
2023/06/06 08:19:28;;;;;;;6.15;5.55;;;22.50;94.40;;;;;;6353654;27;87865;-70
2023/06/06 08:22:30;;;;;;;6.18;5.30;;;22.50;94.30;;;;;;6344296;27;90335;-71
2023/06/06 08:25:32;;;;;;;6.60;6.00;;;22.50;94.80;;;;;;6347073;27;89056;-69
2023/06/06 08:28:36;;;;;;;10.10;6.95;;;22.50;94.90;;;;;;6347942;27;89059;-69
2023/06/06 08:31:38;;;;;;;7.00;6.30;;;22.60;95.40;;;;;;6344565;27;90569;-69
2023/06/06 08:34:41;;;;;;;7.57;6.80;;;22.60;96.10;;;;;;6334856;27;89224;-68
2023/06/06 08:37:43;;;;;;;7.78;7.00;;;22.70;94.70;;;;;;6351626;27;89278;-69
2023/06/06 08:40:45;;;;;;;6.82;6.22;;;22.70;94.20;;;;;;6352409;27;89513;-69
2023/06/06 08:43:49;;;;;;;7.57;6.80;;;22.80;94.10;;;;;;6345718;27;88749;-69
2023/06/06 08:46:52;;;;;;;7.65;6.47;;;22.80;93.90;;;;;;6355497;27;87547;-70
2023/06/06 08:49:55;;;;;;;6.25;5.75;;;22.80;93.80;;;;;;6351920;27;88994;-69
2023/06/06 08:53:04;;;;;;;6.93;6.25;;;22.90;93.80;;;;;;6345713;27;90054;-70
2023/06/06 08:56:08;;;;;;;6.70;6.10;;;22.90;93.80;;;;;;6340173;27;88136;-70
2023/06/06 08:59:12;;;;;;;9.02;6.60;;;22.90;93.60;;;;;;6341521;27;88970;-70
2023/06/06 09:02:15;;;;;;;6.75;6.15;;;23.00;93.50;;;;;;6345987;27;89312;-70
2023/06/06 09:05:19;;;;;;;7.07;6.38;;;23.00;93.50;;;;;;6354496;27;88272;-70
2023/06/06 09:08:23;;;;;;;6.75;5.90;;;22.90;93.40;;;;;;6347465;27;88921;-70
2023/06/06 09:11:26;;;;;;;7.10;6.18;;;23.00;93.40;;;;;;6348547;27;88871;-70
2023/06/06 09:14:29;;;;;;;6.43;5.82;;;23.00;93.30;;;;;;6341538;27;88601;-70
2023/06/06 09:17:36;;;;;;;7.18;6.53;;;23.00;93.20;;;;;;6349683;27;87947;-69
2023/06/06 09:20:39;;;;;;;7.05;6.28;;;23.00;93.20;;;;;;6346640;27;89510;-70
2023/06/06 09:23:42;;;;;;;7.32;6.03;;;23.00;93.30;;;;;;6342699;27;89982;-70
2023/06/06 09:26:44;;;;;;;6.50;5.90;;;23.00;93.20;;;;;;6342750;27;89024;-71
2023/06/06 09:33:54;;;;;;;6.40;5.80;;;23.10;93.40;;;;;;6349248;27;87308;-71
2023/06/06 09:36:59;;;;;;;6.40;5.80;;;23.10;93.40;;;;;;6353967;27;89108;-71
2023/06/06 09:40:14;;;;;;;7.85;5.82;;;23.00;93.40;;;;;;6342164;27;87879;-71
2023/06/06 09:43:16;;;;;;;6.30;5.70;;;23.00;93.30;;;;;;6341074;27;89249;-71
2023/06/06 09:46:19;;;;;;;6.35;5.75;;;23.00;93.20;;;;;;6354961;27;88279;-71
2023/06/06 09:49:56;;;;;;;5.93;5.43;;;23.00;93.20;;;;;;6350046;27;89549;-71
2023/06/06 09:52:59;;;;;;;7.65;5.97;;;23.00;93.20;;;;;;6349890;27;90211;-70
2023/06/06 09:56:05;;;;;;;6.35;5.75;;;23.00;93.20;;;;;;6339073;27;89816;-71
2023/06/06 09:59:08;;;;;;;6.20;5.60;;;23.00;93.20;;;;;;6345779;27;89205;-70
2023/06/06 10:02:14;;;;;;;6.30;5.70;;;23.00;93.10;;;;;;6354663;27;89198;-71
2023/06/06 10:05:16;;;;;;;7.40;5.90;;;23.00;93.10;;;;;;6353234;27;89063;-70
2023/06/06 10:08:20;;;;;;;6.65;5.57;;;23.00;93.10;;;;;;6353669;27;89363;-69
2023/06/06 10:11:22;;;;;;;5.95;5.35;;;23.00;93.20;;;;;;6353134;27;87958;-70
2023/06/06 10:14:26;;;;;;;7.97;6.13;;;23.00;93.20;;;;;;6351484;27;89402;-70
2023/06/06 10:17:31;;;;;;;7.60;6.00;;;23.00;93.20;;;;;;6342232;27;88363;-71
2023/06/06 10:20:34;;;;;;;6.43;5.82;;;23.00;93.20;;;;;;6358135;27;89127;-71
2023/06/06 10:23:36;;;;;;;7.15;5.75;;;22.90;93.20;;;;;;6349970;27;89203;-70
2023/06/06 10:26:46;;;;;;;6.97;5.70;;;22.90;93.20;;;;;;6345192;27;90171;-70
2023/06/06 10:29:52;;;;;;;5.90;5.30;;;22.90;93.20;;;;;;6353749;27;88932;-69
2023/06/06 10:33:13;;;;;;;5.82;5.30;;;22.90;93.20;;;;;;6349494;27;89300;-69
2023/06/06 10:36:20;;;;;;;6.10;5.50;;;22.90;93.20;;;;;;6345477;27;89048;-70
2023/06/06 10:39:23;;;;;;;6.57;5.80;;;22.90;93.20;;;;;;6352252;27;89522;-69
2023/06/06 10:42:36;;;;;;;5.95;5.45;;;22.90;93.30;;;;;;6324666;27;89086;-70
2023/06/06 10:45:45;;;;;;;5.88;5.38;;;22.90;93.30;;;;;;6341908;27;89024;-71
2023/06/06 10:48:55;;;;;;;7.05;5.57;;;22.90;93.30;;;;;;6328054;27;88688;-71
2023/06/06 10:52:06;;;;;;;5.93;5.35;;;22.90;93.40;;;;;;6328635;27;89089;-70
2023/06/06 10:55:15;;;;;;;5.60;5.10;;;22.80;93.40;;;;;;6329546;27;88997;-70
2023/06/06 10:58:24;;;;;;;5.57;5.07;;;22.90;93.40;;;;;;6332385;27;89983;-70
2023/06/06 11:01:27;;;;;;;5.70;5.20;;;22.90;93.40;;;;;;6327872;27;89056;-70
2023/06/06 11:04:38;;;;;;;6.18;5.68;;;22.90;93.40;;;;;;6312243;27;89008;-71
2023/06/06 11:07:41;;;;;;;6.25;5.43;;;22.90;93.40;;;;;;6317415;27;88984;-68
2023/06/06 11:10:47;;;;;;;6.57;5.43;;;22.90;93.40;;;;;;6328081;27;88931;-71
2023/06/06 11:13:57;;;;;;;138.13;36.47;;;22.80;93.40;;;;;;6322784;27;88996;-70
2023/06/06 11:17:02;;;;;;;59.80;21.33;;;22.90;93.70;;;;;;6335933;27;89134;-70
2023/06/06 11:20:09;;;;;;;93.38;33.55;;;22.90;94.90;;;;;;6326225;27;88439;-72
2023/06/06 11:23:12;;;;;;;37.28;15.05;;;23.00;99.90;;;;;;6326722;27;88966;-69
2023/06/06 11:26:16;;;;;;;28.75;12.70;;;23.00;99.90;;;;;;6334088;27;89081;-70
2023/06/06 11:29:20;;;;;;;21.83;10.57;;;23.00;99.10;;;;;;6327523;27;90096;-69
2023/06/06 11:32:26;;;;;;;17.00;9.85;;;23.10;98.40;;;;;;6324551;27;89024;-68
2023/06/06 11:35:32;;;;;;;16.92;8.98;;;23.10;97.80;;;;;;6327509;27;89070;-69
2023/06/06 11:38:34;;;;;;;14.50;9.40;;;23.10;97.40;;;;;;6323777;27;87938;-69
2023/06/06 11:41:37;;;;;;;15.73;9.00;;;23.10;97.00;;;;;;6340235;27;89096;-69
2023/06/06 11:44:39;;;;;;;12.10;8.02;;;23.10;96.70;;;;;;6320211;27;88844;-69
2023/06/06 11:47:41;;;;;;;12.43;8.00;;;23.10;96.30;;;;;;6314850;27;89045;-69
2023/06/06 11:50:44;;;;;;;10.73;7.43;;;23.10;96.20;;;;;;6325211;27;88434;-70
2023/06/06 11:53:47;;;;;;;12.32;7.40;;;23.00;95.90;;;;;;6319680;27;90466;-71
2023/06/06 11:56:52;;;;;;;10.52;7.80;;;23.00;95.80;;;;;;6320980;27;87974;-70
2023/06/06 11:59:55;;;;;;;10.70;7.55;;;23.00;95.80;;;;;;6319175;27;89936;-68
2023/06/06 12:02:59;;;;;;;11.18;10.07;;;23.00;95.30;;;;;;6329720;27;89197;-69
2023/06/06 12:06:04;;;;;;;14.63;13.32;;;23.00;95.30;;;;;;6322065;27;89860;-69
2023/06/06 12:09:12;;;;;;;16.83;15.32;;;23.00;95.40;;;;;;6324700;27;89157;-70
2023/06/06 12:12:14;;;;;;;17.05;15.10;;;23.00;96.10;;;;;;6322532;27;89191;-70
2023/06/06 12:15:16;;;;;;;15.75;14.35;;;23.00;96.40;;;;;;6314773;27;89406;-70
2023/06/06 12:18:18;;;;;;;14.70;13.30;;;23.00;96.40;;;;;;6324916;27;89148;-70
2023/06/06 12:21:22;;;;;;;15.07;13.75;;;23.00;96.30;;;;;;6321344;27;88307;-71
2023/06/06 12:24:26;;;;;;;13.75;12.55;;;23.00;96.20;;;;;;6344538;27;87952;-69
2023/06/06 12:27:33;;;;;;;12.95;11.82;;;23.00;96.10;;;;;;6339876;27;89114;-69
2023/06/06 12:30:36;;;;;;;13.43;12.13;;;23.00;96.10;;;;;;6325555;27;89979;-68
2023/06/06 12:33:47;;;;;;;13.18;12.02;;;23.00;96.00;;;;;;6320539;27;88015;-69
2023/06/06 12:36:53;;;;;;;12.82;11.15;;;23.00;95.80;;;;;;6328703;27;87964;-69
2023/06/06 12:39:55;;;;;;;12.27;11.00;;;23.00;95.70;;;;;;6330241;27;89132;-69
2023/06/06 12:42:58;;;;;;;12.10;11.00;;;23.00;95.60;;;;;;6351005;27;89061;-70
2023/06/06 12:46:00;;;;;;;11.70;10.60;;;23.00;95.40;;;;;;6344421;27;89125;-70
2023/06/06 12:49:02;;;;;;;11.43;10.18;;;23.00;95.60;;;;;;6347400;27;89088;-70
2023/06/06 12:52:07;;;;;;;11.07;10.07;;;22.90;95.40;;;;;;6354134;27;88727;-70
2023/06/06 12:55:09;;;;;;;10.45;9.55;;;23.00;95.40;;;;;;6346006;27;88119;-70
2023/06/06 12:58:11;;;;;;;10.48;9.48;;;23.00;95.30;;;;;;6344775;27;89259;-69
2023/06/06 13:01:13;;;;;;;11.05;9.95;;;23.00;95.20;;;;;;6345907;27;89926;-71
2023/06/06 13:04:16;;;;;;;10.35;9.45;;;23.00;95.10;;;;;;6339893;27;89091;-70
2023/06/06 13:07:19;;;;;;;9.75;8.93;;;23.00;95.00;;;;;;6335097;27;87990;-69
2023/06/06 13:10:21;;;;;;;10.52;9.52;;;23.00;95.00;;;;;;6341294;27;89122;-69
2023/06/06 13:13:24;;;;;;;9.90;9.00;;;23.00;95.00;;;;;;6353113;27;89253;-69
2023/06/06 13:16:27;;;;;;;10.18;9.25;;;23.00;95.30;;;;;;6327296;27;89130;-69
2023/06/06 13:19:29;;;;;;;9.68;8.85;;;23.00;94.80;;;;;;6336895;27;89383;-69
2023/06/06 13:22:33;;;;;;;9.60;8.77;;;23.00;94.80;;;;;;6354787;27;87076;-69
2023/06/06 13:25:35;;;;;;;9.80;8.80;;;23.00;94.80;;;;;;6351058;27;89133;-70
2023/06/06 13:28:38;;;;;;;10.43;9.43;;;23.00;94.70;;;;;;6347189;27;89332;-70
2023/06/06 13:31:42;;;;;;;9.35;8.45;;;23.00;94.60;;;;;;6349910;27;90464;-69
2023/06/06 13:34:44;;;;;;;10.07;9.07;;;22.90;94.50;;;;;;6344790;27;89108;-71
2023/06/06 13:37:47;;;;;;;9.95;8.90;;;23.00;94.60;;;;;;6350492;27;88689;-70
2023/06/06 13:40:49;;;;;;;8.95;8.23;;;23.00;94.60;;;;;;6347249;27;89171;-71
2023/06/06 13:43:51;;;;;;;9.10;8.30;;;23.00;94.50;;;;;;6351509;27;89212;-71
2023/06/06 13:46:53;;;;;;;9.30;8.48;;;23.00;94.40;;;;;;6330727;27;89361;-71
2023/06/06 13:49:57;;;;;;;9.02;8.23;;;23.00;94.50;;;;;;6346783;27;87854;-69
2023/06/06 13:53:01;;;;;;;9.32;8.52;;;23.00;94.40;;;;;;6337764;27;88562;-68
2023/06/06 13:56:03;;;;;;;9.30;8.40;;;23.00;94.30;;;;;;6341622;27;89538;-69
2023/06/06 13:59:05;;;;;;;9.40;8.60;;;22.90;94.70;;;;;;6352121;27;89003;-69
2023/06/06 14:02:07;;;;;;;8.82;8.02;;;23.00;94.30;;;;;;6333134;27;89954;-69
2023/06/06 14:05:10;;;;;;;8.77;7.95;;;23.00;94.30;;;;;;6351491;27;87859;-70
2023/06/06 14:08:13;;;;;;;8.98;8.15;;;23.00;94.30;;;;;;6353184;27;88674;-70
2023/06/06 14:11:16;;;;;;;9.02;8.13;;;22.90;94.20;;;;;;6351310;27;89055;-70
2023/06/06 14:14:18;;;;;;;8.23;7.53;;;22.90;94.20;;;;;;6341409;27;88945;-70
2023/06/06 14:17:20;;;;;;;8.93;8.13;;;23.00;94.20;;;;;;6348668;27;88970;-69
2023/06/06 14:20:24;;;;;;;8.20;7.50;;;23.00;94.10;;;;;;6358860;27;87915;-69
2023/06/06 14:23:28;;;;;;;8.52;7.72;;;23.00;94.10;;;;;;6351859;27;87608;-70
2023/06/06 14:26:30;;;;;;;8.77;7.97;;;23.00;94.10;;;;;;6351589;27;89120;-69
2023/06/06 14:29:32;;;;;;;9.00;8.20;;;23.00;94.10;;;;;;6351385;27;89120;-69
2023/06/06 14:32:35;;;;;;;8.40;7.60;;;23.00;94.10;;;;;;6370654;27;90008;-69
2023/06/06 14:35:37;;;;;;;8.73;7.80;;;23.00;94.00;;;;;;6355872;27;89142;-71
2023/06/06 14:38:40;;;;;;;8.93;8.02;;;23.00;93.90;;;;;;6338290;27;87879;-71
2023/06/06 14:41:42;;;;;;;8.55;7.80;;;23.00;93.80;;;;;;6357697;27;89511;-71
2023/06/06 14:44:45;;;;;;;8.35;7.65;;;23.00;93.80;;;;;;6349573;27;89058;-71
2023/06/06 14:47:47;;;;;;;8.90;8.00;;;23.00;93.90;;;;;;6357475;27;89065;-71
2023/06/06 14:50:49;;;;;;;8.63;7.82;;;23.00;93.80;;;;;;6346618;27;88967;-70
2023/06/06 14:53:53;;;;;;;8.68;7.88;;;23.00;93.80;;;;;;6347257;27;88659;-70
2023/06/06 14:56:55;;;;;;;8.27;7.57;;;23.00;93.80;;;;;;6357252;27;88902;-71
2023/06/06 14:59:57;;;;;;;8.15;7.45;;;23.00;93.80;;;;;;6358438;27;89054;-71
2023/06/06 15:02:59;;;;;;;8.13;7.32;;;23.00;93.80;;;;;;6367970;27;90384;-71
2023/06/06 15:06:02;;;;;;;8.30;7.60;;;23.00;93.80;;;;;;6358793;27;89178;-70
2023/06/06 15:09:06;;;;;;;8.27;7.22;;;23.00;93.80;;;;;;6357819;27;88475;-71
2023/06/06 15:12:11;;;;;;;8.32;7.53;;;23.00;93.80;;;;;;6355802;27;88654;-71
2023/06/06 15:15:13;;;;;;;8.77;7.35;;;23.00;93.80;;;;;;6342465;27;88818;-71
2023/06/06 15:18:15;;;;;;;7.97;7.20;;;23.00;93.70;;;;;;6343025;27;89154;-72
2023/06/06 15:21:18;;;;;;;8.07;7.35;;;23.00;93.70;;;;;;6342960;27;89106;-71
2023/06/06 15:24:24;;;;;;;8.65;7.75;;;23.00;93.60;;;;;;6346955;27;88551;-71
2023/06/06 15:27:26;;;;;;;7.90;7.20;;;23.00;93.60;;;;;;6353610;27;88402;-71
2023/06/06 15:30:28;;;;;;;8.38;7.57;;;23.00;93.60;;;;;;6346604;27;89237;-69
2023/06/06 15:33:30;;;;;;;8.90;7.60;;;23.00;93.50;;;;;;6349202;27;89968;-69
2023/06/06 15:36:32;;;;;;;7.75;7.00;;;23.00;93.60;;;;;;6350143;27;87930;-71
2023/06/06 15:39:36;;;;;;;8.10;7.35;;;23.00;93.50;;;;;;6348100;27;89055;-73
2023/06/06 15:42:38;;;;;;;8.70;7.80;;;23.00;93.60;;;;;;6338391;27;89216;-72
2023/06/06 15:45:42;;;;;;;8.10;7.40;;;23.00;93.70;;;;;;6340991;27;87969;-71
2023/06/06 15:48:44;;;;;;;8.20;7.50;;;23.00;93.60;;;;;;6346789;27;87866;-74
2023/06/06 15:51:46;;;;;;;8.30;7.07;;;23.00;93.50;;;;;;6346980;27;89491;-73
2023/06/06 15:54:50;;;;;;;7.95;7.25;;;23.00;93.60;;;;;;6346825;27;87519;-72
2023/06/06 15:57:51;;;;;;;9.38;7.53;;;23.00;93.60;;;;;;6359238;27;89183;-73